Pagina principală
METAR-TAF:

METAR-TAF

Aeroporturi :

Corfu, Grecia

Latitudine: 39-37N, longitudine: 019-55E, elevație: 2 m

Observații meteo curente

Raportul a fost făcut în urmă cu 32 de minute, la 10:50 UTC
Vânt 6 kt de la Vest/Sud-vest
Temperatură 37°C
Umiditate 42%
Presiune 1011 hPa
Vizibilitate de 10 km sau mai mult
nu există nori sub 1.500 m și nici cumulonimbus

METAR: LGKR 171050Z 25006KT CAVOK 37/22 Q1011 NOSIG

Ora: 14:22 (11:22 UTC)

Prognoză

Raportul a fost făcut în urmă cu 6 ore și 22 de minute, la 05:00 UTC
Prognoză valabilă de la 17 ora 06 UTC la 18 ora 06 UTC
Vânt 5 kt din direcții variabile
Vizibilitate de 10 km sau mai mult
Nori puțini la o înălțime de 2500 picior
Temporar
de la 17 ora 12 UTC la 17 ora 16 UTC
Vânt 8 kt de la Vest

TAF: LGKR 170500Z 1706/1806 VRB05KT 9999 FEW025 TEMPO 1712/1716 28008KT

Observații și prognoze meteo pentru peste 4.000 de aeroporturi (rapoarte METAR și TAF).

Stațiile disponibile sunt reprezentate pe hartă prin puncte galbene și roșii.

Țineți indicatorul mouse-ului pe punctul dorit pentru a vedea denumirea stației.

Apoi, faceți clic pentru a vedea observațiile și prognozele meteorologice.

Pentru a schimba harta: Pentru mărire, faceți clic pe butoanele verzi cu cruce neagră; pentru micșorare, pe butonul verde cu o liniuță; pentru hărți învecinate, pe săgețile verzi.


METAR-TAF: